Terminal Aerodrome Forecast
Issued by NWS Jackson, KY

Home | Current Version | Previous Version | Text Only | Print | Product List | Glossary On
Versions: 1 2 3 4 5 6 7 8 9 10 11 12 13 14 15 16 17 18
000
FTUS43 KJKL 231100
TAFLOZ
TAF
KLOZ 231128Z 2312/2412 18006KT P6SM VCSH BKN018
     FM232100 17008KT 2SM -SHRA BR BKN022
     FM240200 18005KT 3SM -SHRA BR OVC018 WS020/21035KT=

USA.gov is the U.S. government's official web portal to all federal, state and local government web resources and services.